Time;durP1;ratioP1;P1;durP2;ratioP2;P2;SDS_P1;SDS_P2;PMS_P1;PMS_P2;Temp;Humidity;BMP_temperature;BMP_pressure;BME280_temperature;BME280_humidity;BME280_pressure;Samples;Min_cycle;Max_cycle;Signal;HPM_P1;HPM_P2
2024/01/19 00:01:26;;;;;;;3.97;0.45;;;;;;;;;;4969436;28;20054;-66
2024/01/19 00:03:53;;;;;;;6.05;0.60;;;;;;;;;;4970321;28;20053;-65
2024/01/19 00:06:21;;;;;;;9.65;1.23;;;;;;;;;;4969638;28;20051;-65
2024/01/19 00:08:48;;;;;;;6.28;0.70;;;;;;;;;;4969761;28;20058;-65
2024/01/19 00:11:15;;;;;;;6.72;0.68;;;;;;;;;;4969276;28;20066;-65
2024/01/19 00:13:44;;;;;;;10.13;0.70;;;;;;;;;;4970408;28;20042;-65
2024/01/19 00:16:12;;;;;;;2.55;0.40;;;;;;;;;;4967054;28;20051;-65
2024/01/19 00:18:39;;;;;;;5.72;0.52;;;;;;;;;;4970584;28;20051;-65
2024/01/19 00:21:06;;;;;;;7.25;0.47;;;;;;;;;;4969408;28;20859;-65
2024/01/19 00:23:33;;;;;;;7.15;1.38;;;;;;;;;;4970674;28;20047;-65
2024/01/19 00:26:01;;;;;;;2.92;0.45;;;;;;;;;;4969301;28;20051;-65
2024/01/19 00:28:28;;;;;;;7.28;0.40;;;;;;;;;;4964338;28;20043;-65
2024/01/19 00:30:57;;;;;;;6.00;0.43;;;;;;;;;;4969226;28;20130;-65
2024/01/19 00:33:24;;;;;;;1.73;0.30;;;;;;;;;;4953081;28;20059;-65
2024/01/19 00:35:51;;;;;;;6.53;0.80;;;;;;;;;;4968183;28;20056;-66
2024/01/19 00:38:18;;;;;;;5.93;0.60;;;;;;;;;;4970140;28;20054;-65
2024/01/19 00:40:45;;;;;;;3.35;0.50;;;;;;;;;;4966079;28;20082;-65
2024/01/19 00:43:13;;;;;;;4.70;0.77;;;;;;;;;;4951090;28;20546;-65
2024/01/19 00:45:40;;;;;;;5.70;0.70;;;;;;;;;;4965104;28;20054;-65
2024/01/19 00:48:09;;;;;;;7.57;0.50;;;;;;;;;;4968441;28;20133;-65
2024/01/19 00:50:36;;;;;;;3.53;0.40;;;;;;;;;;4949450;28;20043;-65
2024/01/19 00:53:03;;;;;;;6.57;0.65;;;;;;;;;;4969674;28;20065;-65
2024/01/19 00:55:31;;;;;;;2.47;0.40;;;;;;;;;;4968810;28;20054;-65
2024/01/19 00:57:58;;;;;;;8.80;0.50;;;;;;;;;;4969090;28;20490;-65
2024/01/19 01:00:25;;;;;;;1.33;0.68;;;;;;;;;;4969321;28;20126;-65
2024/01/19 01:02:52;;;;;;;6.15;0.50;;;;;;;;;;4967714;28;20057;-65
2024/01/19 01:05:21;;;;;;;10.45;0.88;;;;;;;;;;4969966;28;20066;-65
2024/01/19 01:07:48;;;;;;;4.93;0.55;;;;;;;;;;4967571;28;20491;-65
2024/01/19 01:10:16;;;;;;;18.00;0.60;;;;;;;;;;4969775;28;20058;-65
2024/01/19 01:12:43;;;;;;;13.32;0.63;;;;;;;;;;4967525;28;20054;-65
2024/01/19 01:15:10;;;;;;;10.07;0.98;;;;;;;;;;4969745;28;20050;-65
2024/01/19 01:17:38;;;;;;;6.05;0.73;;;;;;;;;;4965063;28;20062;-65
2024/01/19 01:20:05;;;;;;;9.23;0.73;;;;;;;;;;4968114;28;20066;-65
2024/01/19 01:22:34;;;;;;;5.03;0.55;;;;;;;;;;4968463;28;20069;-66
2024/01/19 01:25:02;;;;;;;10.05;1.45;;;;;;;;;;4950207;28;20047;-65
2024/01/19 01:27:29;;;;;;;12.05;1.88;;;;;;;;;;4950984;28;20392;-66
2024/01/19 01:29:56;;;;;;;7.15;0.57;;;;;;;;;;4968527;28;20142;-65
2024/01/19 01:32:24;;;;;;;11.95;0.57;;;;;;;;;;4968647;28;20462;-66
2024/01/19 01:34:51;;;;;;;6.95;0.82;;;;;;;;;;4968499;28;20058;-65
2024/01/19 01:37:18;;;;;;;11.80;0.80;;;;;;;;;;4968434;28;20513;-65
2024/01/19 01:39:47;;;;;;;7.10;0.60;;;;;;;;;;4968625;28;20055;-65
2024/01/19 01:42:14;;;;;;;12.05;1.52;;;;;;;;;;4967671;28;20055;-65
2024/01/19 01:44:41;;;;;;;8.98;0.88;;;;;;;;;;4969722;28;20065;-65
2024/01/19 01:47:08;;;;;;;14.68;0.85;;;;;;;;;;4967380;28;20047;-65
2024/01/19 01:49:36;;;;;;;11.38;1.33;;;;;;;;;;4947853;28;20078;-65
2024/01/19 01:52:03;;;;;;;3.50;0.60;;;;;;;;;;4967500;28;20058;-65
2024/01/19 01:54:31;;;;;;;5.18;0.52;;;;;;;;;;4968065;28;20065;-65
2024/01/19 01:57:00;;;;;;;11.55;1.02;;;;;;;;;;4970936;28;20061;-65
2024/01/19 01:59:27;;;;;;;12.95;0.98;;;;;;;;;;4971506;28;20054;-65
2024/01/19 02:01:54;;;;;;;12.35;0.77;;;;;;;;;;4972593;28;20055;-66
2024/01/19 02:04:22;;;;;;;6.90;0.63;;;;;;;;;;4972276;28;20051;-66
2024/01/19 02:06:49;;;;;;;9.70;0.80;;;;;;;;;;4972733;28;20494;-65
2024/01/19 02:09:17;;;;;;;11.98;1.88;;;;;;;;;;4971941;28;20693;-65
2024/01/19 02:11:44;;;;;;;17.63;2.00;;;;;;;;;;4971849;28;20047;-65
2024/01/19 02:14:13;;;;;;;14.88;1.00;;;;;;;;;;4950102;28;20057;-65
2024/01/19 02:16:40;;;;;;;10.82;0.77;;;;;;;;;;4966815;28;20051;-65
2024/01/19 02:19:07;;;;;;;18.23;1.25;;;;;;;;;;4972364;28;20062;-65
2024/01/19 02:21:35;;;;;;;9.65;0.82;;;;;;;;;;4971342;28;20058;-65
2024/01/19 02:24:02;;;;;;;7.88;0.85;;;;;;;;;;4972594;28;20503;-65
2024/01/19 02:26:31;;;;;;;7.28;0.77;;;;;;;;;;4969218;28;20125;-65
2024/01/19 02:28:59;;;;;;;6.65;0.57;;;;;;;;;;4967750;28;20054;-65
2024/01/19 02:31:26;;;;;;;9.77;1.17;;;;;;;;;;4969555;28;20101;-65
2024/01/19 02:33:53;;;;;;;4.57;0.55;;;;;;;;;;4965451;28;20055;-66
2024/01/19 02:36:21;;;;;;;1.80;0.28;;;;;;;;;;4972656;28;20050;-65
2024/01/19 02:38:48;;;;;;;4.57;0.38;;;;;;;;;;4963888;28;20463;-65
2024/01/19 02:41:15;;;;;;;1.50;0.20;;;;;;;;;;4971342;28;20116;-65
2024/01/19 02:43:44;;;;;;;3.75;0.20;;;;;;;;;;4967718;28;20059;-65
2024/01/19 02:46:11;;;;;;;4.13;0.40;;;;;;;;;;4971417;28;20061;-65
2024/01/19 02:48:38;;;;;;;4.35;0.50;;;;;;;;;;4970900;28;20046;-65
2024/01/19 02:51:06;;;;;;;3.45;0.30;;;;;;;;;;4971882;28;20043;-65
2024/01/19 02:53:33;;;;;;;5.20;0.47;;;;;;;;;;4971792;28;20050;-65
2024/01/19 02:56:00;;;;;;;3.92;0.40;;;;;;;;;;4971273;28;20088;-65
2024/01/19 02:58:28;;;;;;;3.00;0.63;;;;;;;;;;4970700;28;20059;-65
2024/01/19 03:00:56;;;;;;;4.88;0.57;;;;;;;;;;4972251;28;20154;-65
2024/01/19 03:03:24;;;;;;;7.20;0.32;;;;;;;;;;4970677;28;20066;-65
2024/01/19 03:05:51;;;;;;;2.85;0.38;;;;;;;;;;4971554;28;20620;-65
2024/01/19 03:08:18;;;;;;;5.38;0.43;;;;;;;;;;4965396;28;20050;-65
2024/01/19 03:10:45;;;;;;;3.60;0.35;;;;;;;;;;4971087;28;20042;-65
2024/01/19 03:13:13;;;;;;;3.20;0.22;;;;;;;;;;4953969;28;20467;-65
2024/01/19 03:15:40;;;;;;;2.42;0.32;;;;;;;;;;4970774;28;20216;-65
2024/01/19 03:18:09;;;;;;;3.70;0.40;;;;;;;;;;4971130;28;20059;-65
2024/01/19 03:20:36;;;;;;;6.30;0.55;;;;;;;;;;4970764;28;20513;-65
2024/01/19 03:23:03;;;;;;;12.05;0.60;;;;;;;;;;4971494;28;20051;-65
2024/01/19 03:25:30;;;;;;;5.90;0.70;;;;;;;;;;4970654;28;20502;-65
2024/01/19 03:27:58;;;;;;;14.10;0.90;;;;;;;;;;4953305;28;20081;-65
2024/01/19 03:30:25;;;;;;;15.32;1.10;;;;;;;;;;4969730;28;20046;-65
2024/01/19 03:32:52;;;;;;;11.88;0.95;;;;;;;;;;4971279;28;20047;-65
2024/01/19 03:35:21;;;;;;;7.10;0.90;;;;;;;;;;4969644;28;20120;-65
2024/01/19 03:37:48;;;;;;;11.77;0.88;;;;;;;;;;4971136;28;20136;-65
2024/01/19 03:40:15;;;;;;;12.50;1.20;;;;;;;;;;4950560;28;20046;-65
2024/01/19 03:42:43;;;;;;;9.00;0.70;;;;;;;;;;4971300;28;20047;-65
2024/01/19 03:45:10;;;;;;;17.55;0.90;;;;;;;;;;4970497;28;20055;-65
2024/01/19 03:47:37;;;;;;;6.88;0.90;;;;;;;;;;4970168;28;20058;-65
2024/01/19 03:50:08;;;;;;;11.38;1.08;;;;;;;;;;4974270;28;20062;-65
2024/01/19 03:52:37;;;;;;;9.68;0.70;;;;;;;;;;4970936;28;20042;-65
2024/01/19 03:55:05;;;;;;;6.70;0.70;;;;;;;;;;4969697;28;20078;-65
2024/01/19 03:57:32;;;;;;;10.85;0.80;;;;;;;;;;4970651;28;20054;-65
2024/01/19 03:59:59;;;;;;;13.73;1.08;;;;;;;;;;4963584;28;20499;-65
2024/01/19 04:02:26;;;;;;;5.95;0.50;;;;;;;;;;4967023;28;20051;-65
2024/01/19 04:04:54;;;;;;;8.63;0.60;;;;;;;;;;4962234;28;20502;-65
2024/01/19 04:07:21;;;;;;;8.55;0.88;;;;;;;;;;4961650;28;20051;-65
2024/01/19 04:09:50;;;;;;;10.75;0.60;;;;;;;;;;4970499;28;20509;-65
2024/01/19 04:12:18;;;;;;;7.60;0.57;;;;;;;;;;4967648;28;20054;-65
2024/01/19 04:14:46;;;;;;;7.25;0.57;;;;;;;;;;4968931;28;20050;-65
2024/01/19 04:17:13;;;;;;;8.80;0.50;;;;;;;;;;4965994;28;20624;-65
2024/01/19 04:19:41;;;;;;;12.57;0.90;;;;;;;;;;4964195;28;20053;-65
2024/01/19 04:22:08;;;;;;;9.95;0.57;;;;;;;;;;4968312;28;20051;-65
2024/01/19 04:24:36;;;;;;;5.53;0.35;;;;;;;;;;4967846;28;20066;-66
2024/01/19 04:27:04;;;;;;;11.40;0.75;;;;;;;;;;4963193;28;20062;-66
2024/01/19 04:29:32;;;;;;;7.82;0.75;;;;;;;;;;4968728;28;20054;-66
2024/01/19 04:31:59;;;;;;;8.05;0.60;;;;;;;;;;4959367;28;20095;-65
2024/01/19 04:34:26;;;;;;;5.68;0.60;;;;;;;;;;4967775;28;20456;-65
2024/01/19 04:36:54;;;;;;;4.45;0.70;;;;;;;;;;4967742;28;20046;-66
2024/01/19 04:39:21;;;;;;;9.10;0.57;;;;;;;;;;4949979;28;20058;-65
2024/01/19 04:41:48;;;;;;;9.18;0.85;;;;;;;;;;4952245;28;20050;-66
2024/01/19 04:44:17;;;;;;;11.05;1.25;;;;;;;;;;4969099;28;20051;-65
2024/01/19 04:46:44;;;;;;;6.80;0.30;;;;;;;;;;4969813;28;20055;-65
2024/01/19 04:49:11;;;;;;;5.43;0.57;;;;;;;;;;4968576;28;20062;-65
2024/01/19 04:51:39;;;;;;;3.83;0.57;;;;;;;;;;4969557;28;20055;-66
2024/01/19 04:54:07;;;;;;;6.47;0.73;;;;;;;;;;4969818;28;20057;-65
2024/01/19 04:56:35;;;;;;;6.93;0.60;;;;;;;;;;4968462;28;20093;-65
2024/01/19 04:59:02;;;;;;;4.75;0.70;;;;;;;;;;4963611;28;20054;-66
2024/01/19 05:01:31;;;;;;;7.63;0.80;;;;;;;;;;4955620;28;20055;-65
2024/01/19 05:03:58;;;;;;;8.05;0.98;;;;;;;;;;4951200;28;21193;-66
2024/01/19 05:06:25;;;;;;;9.10;0.73;;;;;;;;;;4955006;28;20047;-66
2024/01/19 05:08:52;;;;;;;6.93;0.52;;;;;;;;;;4955897;28;20058;-66
2024/01/19 05:11:19;;;;;;;4.88;0.73;;;;;;;;;;4955105;28;20043;-65
2024/01/19 05:13:47;;;;;;;18.33;0.75;;;;;;;;;;4952170;28;20050;-66
2024/01/19 05:16:14;;;;;;;16.15;0.80;;;;;;;;;;4955065;28;20070;-66
2024/01/19 05:18:43;;;;;;;12.02;1.00;;;;;;;;;;4955643;28;20542;-65
2024/01/19 05:21:10;;;;;;;8.27;0.63;;;;;;;;;;4937045;28;20051;-66
2024/01/19 05:23:37;;;;;;;22.60;2.00;;;;;;;;;;4955708;28;20055;-65
2024/01/19 05:26:05;;;;;;;7.53;0.65;;;;;;;;;;4963710;28;20055;-65
2024/01/19 05:28:33;;;;;;;9.98;0.73;;;;;;;;;;4954715;28;20135;-65
2024/01/19 05:31:00;;;;;;;9.68;1.85;;;;;;;;;;4962073;28;20054;-65
2024/01/19 05:33:28;;;;;;;7.22;0.95;;;;;;;;;;4934416;28;20055;-65
2024/01/19 05:35:56;;;;;;;17.63;1.45;;;;;;;;;;4946590;28;20058;-65
2024/01/19 05:38:24;;;;;;;14.45;1.92;;;;;;;;;;4934877;28;20078;-65
2024/01/19 05:40:51;;;;;;;12.85;1.00;;;;;;;;;;4935499;29;20126;-65
2024/01/19 05:43:18;;;;;;;18.02;1.08;;;;;;;;;;4956687;28;20778;-65
2024/01/19 05:45:45;;;;;;;18.63;1.20;;;;;;;;;;4951176;28;20058;-65
2024/01/19 05:48:13;;;;;;;14.95;1.38;;;;;;;;;;4946540;28;20242;-65
2024/01/19 05:50:40;;;;;;;11.07;1.73;;;;;;;;;;4946343;28;20047;-65
2024/01/19 05:53:08;;;;;;;12.65;1.35;;;;;;;;;;4947827;28;20071;-66
2024/01/19 05:55:36;;;;;;;8.60;1.00;;;;;;;;;;4948652;28;20047;-65
2024/01/19 05:58:04;;;;;;;10.63;1.10;;;;;;;;;;4953323;28;20059;-65
2024/01/19 06:00:33;;;;;;;11.73;1.20;;;;;;;;;;4944296;28;20079;-65
2024/01/19 06:03:00;;;;;;;10.98;1.58;;;;;;;;;;4945819;28;20066;-66
2024/01/19 06:05:28;;;;;;;10.05;0.63;;;;;;;;;;4947267;28;20066;-66
2024/01/19 06:07:55;;;;;;;10.45;0.93;;;;;;;;;;4953767;28;20078;-66
2024/01/19 06:10:24;;;;;;;12.07;1.33;;;;;;;;;;4950607;28;20059;-66
2024/01/19 06:12:51;;;;;;;13.68;1.35;;;;;;;;;;4956114;28;20124;-65
2024/01/19 06:15:18;;;;;;;8.38;0.98;;;;;;;;;;4950438;28;20487;-65
2024/01/19 06:17:46;;;;;;;9.45;1.15;;;;;;;;;;4932358;29;20067;-66
2024/01/19 06:20:13;;;;;;;6.95;0.60;;;;;;;;;;4949787;28;20055;-65
2024/01/19 06:22:40;;;;;;;10.10;0.98;;;;;;;;;;4951168;28;20050;-66
2024/01/19 06:25:08;;;;;;;13.00;1.10;;;;;;;;;;4944634;28;20126;-66
2024/01/19 06:27:37;;;;;;;18.70;1.80;;;;;;;;;;4949275;28;20126;-66
2024/01/19 06:30:05;;;;;;;8.23;1.10;;;;;;;;;;4945383;28;20059;-66
2024/01/19 06:32:32;;;;;;;6.55;1.00;;;;;;;;;;4950031;28;20078;-66
2024/01/19 06:34:59;;;;;;;9.57;0.85;;;;;;;;;;4947386;28;20048;-66
2024/01/19 06:37:26;;;;;;;13.05;1.13;;;;;;;;;;4954479;28;20054;-66
2024/01/19 06:39:54;;;;;;;18.50;1.35;;;;;;;;;;4952192;28;20051;-66
2024/01/19 06:42:21;;;;;;;15.98;1.02;;;;;;;;;;4953004;28;20048;-66
2024/01/19 06:44:50;;;;;;;7.72;1.10;;;;;;;;;;4932918;28;20439;-66
2024/01/19 06:47:20;;;;;;;17.15;1.65;;;;;;;;;;4950338;28;20118;-65
2024/01/19 06:49:47;;;;;;;10.60;1.27;;;;;;;;;;4952524;28;20055;-66
2024/01/19 06:52:15;;;;;;;8.70;1.27;;;;;;;;;;4945872;28;20046;-66
2024/01/19 06:54:42;;;;;;;11.40;1.27;;;;;;;;;;4954703;28;20050;-66
2024/01/19 06:57:10;;;;;;;18.73;1.33;;;;;;;;;;4945547;28;20047;-65
2024/01/19 06:59:37;;;;;;;11.70;1.05;;;;;;;;;;4953873;28;20057;-65
2024/01/19 07:02:06;;;;;;;12.15;1.40;;;;;;;;;;4941493;28;20051;-66
2024/01/19 07:04:33;;;;;;;11.73;1.42;;;;;;;;;;4937634;29;20554;-67
2024/01/19 07:07:00;;;;;;;16.98;1.13;;;;;;;;;;4950343;28;20051;-66
2024/01/19 07:09:28;;;;;;;12.93;1.20;;;;;;;;;;4940707;28;20060;-67
2024/01/19 07:11:55;;;;;;;19.25;1.27;;;;;;;;;;4955023;28;20161;-66
2024/01/19 07:14:24;;;;;;;8.48;0.88;;;;;;;;;;4956924;28;20135;-66
2024/01/19 07:16:52;;;;;;;13.57;1.42;;;;;;;;;;4963436;28;20053;-66
2024/01/19 07:19:20;;;;;;;17.35;1.33;;;;;;;;;;4952289;28;20143;-66
2024/01/19 07:21:48;;;;;;;9.23;1.10;;;;;;;;;;4948402;28;20047;-67
2024/01/19 07:24:15;;;;;;;9.35;1.30;;;;;;;;;;4960534;28;20051;-66
2024/01/19 07:26:42;;;;;;;14.50;1.33;;;;;;;;;;4959353;28;20486;-67
2024/01/19 07:29:10;;;;;;;11.20;1.00;;;;;;;;;;4966134;28;20058;-66
2024/01/19 07:31:37;;;;;;;14.40;2.10;;;;;;;;;;4968725;28;20051;-66
2024/01/19 07:34:05;;;;;;;17.13;1.85;;;;;;;;;;4967824;28;20061;-66
2024/01/19 07:36:33;;;;;;;18.92;1.20;;;;;;;;;;4951109;28;20058;-66
2024/01/19 07:39:01;;;;;;;13.40;1.63;;;;;;;;;;4967889;28;20047;-66
2024/01/19 07:41:28;;;;;;;11.52;1.13;;;;;;;;;;4961533;28;20756;-66
2024/01/19 07:43:55;;;;;;;11.27;1.00;;;;;;;;;;4957469;28;20064;-66
2024/01/19 07:46:23;;;;;;;19.75;1.25;;;;;;;;;;4936574;29;20050;-66
2024/01/19 07:48:50;;;;;;;12.55;1.02;;;;;;;;;;4958703;28;20058;-66
2024/01/19 07:51:18;;;;;;;11.80;1.70;;;;;;;;;;4955027;28;20470;-66
2024/01/19 07:53:47;;;;;;;11.00;1.48;;;;;;;;;;4965904;28;20524;-66
2024/01/19 07:56:14;;;;;;;14.93;1.83;;;;;;;;;;4959590;28;20583;-68
2024/01/19 07:58:44;;;;;;;6.45;0.90;;;;;;;;;;4964962;28;20058;-67
2024/01/19 08:01:11;;;;;;;15.88;0.98;;;;;;;;;;4971566;28;20046;-67
2024/01/19 08:03:39;;;;;;;15.27;1.50;;;;;;;;;;4972309;28;20049;-67
2024/01/19 08:06:07;;;;;;;17.23;1.65;;;;;;;;;;4970396;28;20051;-68
2024/01/19 08:08:34;;;;;;;10.15;1.00;;;;;;;;;;4967435;28;20070;-67
2024/01/19 08:11:03;;;;;;;16.42;1.20;;;;;;;;;;4962905;28;20054;-68
2024/01/19 08:13:31;;;;;;;9.65;1.05;;;;;;;;;;4963090;28;20047;-67
2024/01/19 08:15:58;;;;;;;12.20;1.35;;;;;;;;;;4965001;28;20054;-68
2024/01/19 08:18:33;;;;;;;11.10;2.13;;;;;;;;;;4973153;28;20047;-68
2024/01/19 08:21:01;;;;;;;7.80;1.38;;;;;;;;;;4956136;28;20582;-68
2024/01/19 08:23:28;;;;;;;11.20;1.23;;;;;;;;;;4977316;28;20057;-67
2024/01/19 08:25:56;;;;;;;11.82;1.33;;;;;;;;;;4975854;28;20399;-68
2024/01/19 08:28:24;;;;;;;14.55;1.25;;;;;;;;;;4963175;28;20050;-67
2024/01/19 08:30:52;;;;;;;14.32;1.42;;;;;;;;;;4963414;28;20062;-68
2024/01/19 08:33:19;;;;;;;10.40;1.10;;;;;;;;;;4967391;28;20406;-68
2024/01/19 08:35:47;;;;;;;14.45;1.45;;;;;;;;;;4977501;28;20053;-68
2024/01/19 08:38:14;;;;;;;16.30;1.48;;;;;;;;;;4963346;28;20403;-68
2024/01/19 08:40:41;;;;;;;8.80;1.10;;;;;;;;;;4971260;28;20062;-67
2024/01/19 08:43:09;;;;;;;17.90;1.63;;;;;;;;;;4978951;28;20065;-67
2024/01/19 08:45:37;;;;;;;15.25;1.02;;;;;;;;;;4973974;28;20101;-67
2024/01/19 08:48:05;;;;;;;11.43;1.05;;;;;;;;;;4962970;28;20573;-67
2024/01/19 08:50:33;;;;;;;8.40;1.70;;;;;;;;;;4971494;28;20113;-67
2024/01/19 08:53:00;;;;;;;13.68;1.08;;;;;;;;;;4962570;28;20071;-68
2024/01/19 08:55:27;;;;;;;11.27;2.25;;;;;;;;;;4950618;28;20059;-68
2024/01/19 08:57:55;;;;;;;8.80;1.10;;;;;;;;;;4963217;28;20074;-68
2024/01/19 09:00:23;;;;;;;16.02;1.55;;;;;;;;;;4968156;28;20058;-68
2024/01/19 09:02:52;;;;;;;12.18;1.00;;;;;;;;;;4964565;28;20142;-68
2024/01/19 09:05:19;;;;;;;13.40;1.63;;;;;;;;;;4969279;28;20061;-67
2024/01/19 09:07:46;;;;;;;15.48;1.38;;;;;;;;;;4967117;28;20047;-68
2024/01/19 09:10:13;;;;;;;8.68;0.85;;;;;;;;;;4969484;28;20047;-68
2024/01/19 09:12:41;;;;;;;17.88;1.40;;;;;;;;;;4967498;28;20054;-67
2024/01/19 09:15:08;;;;;;;16.83;1.40;;;;;;;;;;4967952;28;20447;-68
2024/01/19 09:17:36;;;;;;;11.68;1.00;;;;;;;;;;4968515;28;20101;-67
2024/01/19 09:20:05;;;;;;;16.65;1.10;;;;;;;;;;4961810;28;20050;-67
2024/01/19 09:22:32;;;;;;;8.23;1.00;;;;;;;;;;4965893;28;20101;-67
2024/01/19 09:24:59;;;;;;;14.60;1.15;;;;;;;;;;4966781;28;20351;-67
2024/01/19 09:27:26;;;;;;;6.03;0.85;;;;;;;;;;4967460;28;20050;-67
2024/01/19 09:29:54;;;;;;;17.92;1.42;;;;;;;;;;4967884;28;20442;-67
2024/01/19 09:32:21;;;;;;;8.50;1.13;;;;;;;;;;4967364;28;20576;-68
2024/01/19 09:34:48;;;;;;;11.93;1.13;;;;;;;;;;4960898;28;20066;-67
2024/01/19 09:37:17;;;;;;;14.02;1.08;;;;;;;;;;4964708;28;20047;-67
2024/01/19 09:39:44;;;;;;;10.90;1.67;;;;;;;;;;4967641;28;20051;-67
2024/01/19 09:42:18;;;;;;;10.10;0.90;;;;;;;;;;4968097;28;20046;-68
2024/01/19 09:44:51;;;;;;;10.27;1.20;;;;;;;;;;4968381;28;20095;-68
2024/01/19 09:47:22;;;;;;;8.13;1.52;;;;;;;;;;4965681;28;20054;-67
2024/01/19 09:50:07;;;;;;;12.02;1.00;;;;;;;;;;4952417;28;20105;-67
2024/01/19 09:52:46;;;;;;;7.80;1.00;;;;;;;;;;4967282;28;20043;-67
2024/01/19 09:55:14;;;;;;;5.35;0.45;;;;;;;;;;4963979;28;20054;-67
2024/01/19 09:57:45;;;;;;;12.73;1.20;;;;;;;;;;4969418;28;20070;-67
2024/01/19 10:00:13;;;;;;;11.30;1.98;;;;;;;;;;4967335;28;20061;-69
2024/01/19 10:02:44;;;;;;;7.22;0.80;;;;;;;;;;4967664;28;20398;-67
2024/01/19 10:05:13;;;;;;;7.20;0.90;;;;;;;;;;4964926;28;20105;-67
2024/01/19 10:07:42;;;;;;;8.88;0.93;;;;;;;;;;4962365;28;20073;-67
2024/01/19 10:10:11;;;;;;;8.35;0.75;;;;;;;;;;4965253;28;20537;-66
2024/01/19 10:12:39;;;;;;;7.38;0.85;;;;;;;;;;4966742;28;20133;-67
2024/01/19 10:15:07;;;;;;;8.82;0.90;;;;;;;;;;4963110;28;20051;-67
2024/01/19 10:17:36;;;;;;;7.05;1.23;;;;;;;;;;4965565;28;20487;-67
2024/01/19 10:20:03;;;;;;;5.80;0.80;;;;;;;;;;4968637;28;20101;-67
2024/01/19 10:22:31;;;;;;;9.13;0.82;;;;;;;;;;4968064;28;20042;-67
2024/01/19 10:25:02;;;;;;;7.82;0.70;;;;;;;;;;4962778;28;20050;-66
2024/01/19 10:27:41;;;;;;;5.93;0.50;;;;;;;;;;4972723;28;20061;-67
2024/01/19 10:30:09;;;;;;;13.35;1.48;;;;;;;;;;4969914;28;20462;-66
2024/01/19 10:32:37;;;;;;;12.50;1.48;;;;;;;;;;4972724;28;20050;-68
2024/01/19 10:35:05;;;;;;;7.07;0.70;;;;;;;;;;4943022;28;20577;-66
2024/01/19 10:37:33;;;;;;;8.73;1.27;;;;;;;;;;4971101;28;20055;-67
2024/01/19 10:40:14;;;;;;;8.85;0.60;;;;;;;;;;4968683;28;20058;-66
2024/01/19 10:42:43;;;;;;;10.00;0.73;;;;;;;;;;4970408;28;20097;-66
2024/01/19 10:45:17;;;;;;;7.85;0.88;;;;;;;;;;4967420;28;20043;-67
2024/01/19 10:47:45;;;;;;;5.63;0.60;;;;;;;;;;4972383;28;20150;-67
2024/01/19 10:50:14;;;;;;;12.02;1.02;;;;;;;;;;4971965;28;20134;-66
2024/01/19 10:52:41;;;;;;;5.45;0.85;;;;;;;;;;4971718;28;20117;-67
2024/01/19 10:55:09;;;;;;;7.25;1.45;;;;;;;;;;4970505;28;20089;-68
2024/01/19 10:57:36;;;;;;;12.90;0.85;;;;;;;;;;4971872;28;20173;-67
2024/01/19 11:03:02;;;;;;;6.15;0.70;;;;;;;;;;5109906;27;20105;-68
2024/01/19 11:05:29;;;;;;;8.55;0.80;;;;;;;;;;5109391;28;20058;-68
2024/01/19 11:07:58;;;;;;;9.48;1.10;;;;;;;;;;5109288;28;20657;-67
2024/01/19 11:10:26;;;;;;;13.52;1.33;;;;;;;;;;5093382;28;20052;-68
2024/01/19 11:12:55;;;;;;;10.50;1.23;;;;;;;;;;5115444;28;20082;-67
2024/01/19 11:15:29;;;;;;;6.95;1.00;;;;;;;;;;5109880;28;20052;-68
2024/01/19 11:17:56;;;;;;;;;;;;;;;;;;5118439;28;20055;-67
2024/01/19 11:20:24;;;;;;;4.55;0.50;;;;;;;;;;5119966;28;19924;-68
2024/01/19 11:22:52;;;;;;;9.65;1.15;;;;;;;;;;5110091;28;20104;-68
2024/01/19 11:25:22;;;;;;;6.85;1.73;;;;;;;;;;5106111;28;20048;-67
2024/01/19 11:27:54;;;;;;;13.35;1.08;;;;;;;;;;5090705;28;20078;-67
2024/01/19 11:30:24;;;;;;;6.53;0.75;;;;;;;;;;5092459;28;20379;-67
2024/01/19 11:32:52;;;;;;;7.13;0.90;;;;;;;;;;5074655;28;20055;-67
2024/01/19 11:35:34;;;;;;;11.75;1.77;;;;;;;;;;5091666;28;20403;-67
2024/01/19 11:38:02;;;;;;;8.27;1.00;;;;;;;;;;5068307;28;20067;-67
2024/01/19 11:40:48;;;;;;;10.98;1.40;;;;;;;;;;5090012;28;20040;-68
2024/01/19 11:43:39;;;;;;;6.93;0.88;;;;;;;;;;5096546;28;20071;-68
2024/01/19 11:46:07;;;;;;;9.60;0.80;;;;;;;;;;5083158;28;20054;-68
2024/01/19 11:48:42;;;;;;;6.60;0.93;;;;;;;;;;5068667;28;20055;-68
2024/01/19 11:51:09;;;;;;;15.55;0.90;;;;;;;;;;5097472;28;20060;-68
2024/01/19 11:53:56;;;;;;;9.02;1.02;;;;;;;;;;5092994;28;20050;-67
2024/01/19 11:56:24;;;;;;;11.05;1.70;;;;;;;;;;5075946;28;20135;-68
2024/01/19 11:58:53;;;;;;;10.93;1.30;;;;;;;;;;5099472;28;20438;-68
2024/01/19 12:01:20;;;;;;;7.53;1.23;;;;;;;;;;5091923;28;20055;-68
2024/01/19 12:03:52;;;;;;;7.75;1.60;;;;;;;;;;5087528;28;20170;-68
2024/01/19 12:06:19;;;;;;;4.63;0.80;;;;;;;;;;5090889;28;20056;-68
2024/01/19 12:08:59;;;;;;;9.07;0.93;;;;;;;;;;5076144;28;20083;-67
2024/01/19 12:11:26;;;;;;;5.72;0.77;;;;;;;;;;5093990;28;20056;-68
2024/01/19 12:13:54;;;;;;;11.13;1.15;;;;;;;;;;5084407;28;20056;-68
2024/01/19 12:16:22;;;;;;;14.30;1.05;;;;;;;;;;5089441;28;20487;-68
2024/01/19 12:18:53;;;;;;;5.13;0.80;;;;;;;;;;5087236;28;20059;-67
2024/01/19 12:21:21;;;;;;;6.97;0.90;;;;;;;;;;5085008;28;20059;-68
2024/01/19 12:23:48;;;;;;;12.20;1.25;;;;;;;;;;5080346;28;20060;-68
2024/01/19 12:26:21;;;;;;;7.78;0.80;;;;;;;;;;5084643;28;20131;-68
2024/01/19 12:28:50;;;;;;;8.57;1.00;;;;;;;;;;5087386;28;20089;-68
2024/01/19 12:31:24;;;;;;;8.88;0.65;;;;;;;;;;5087244;28;20442;-68
2024/01/19 12:33:53;;;;;;;3.03;0.90;;;;;;;;;;5088853;28;20151;-68
2024/01/19 12:36:23;;;;;;;4.53;0.68;;;;;;;;;;5060493;28;20081;-67
2024/01/19 12:39:03;;;;;;;7.85;0.93;;;;;;;;;;5077171;28;20050;-68
2024/01/19 12:41:32;;;;;;;7.28;0.60;;;;;;;;;;5089473;28;20398;-68
2024/01/19 12:43:59;;;;;;;5.68;0.70;;;;;;;;;;5088589;28;20547;-68
2024/01/19 12:46:27;;;;;;;6.28;1.50;;;;;;;;;;5076869;28;20393;-68
2024/01/19 12:48:57;;;;;;;3.28;0.52;;;;;;;;;;5082463;28;20483;-68
2024/01/19 12:51:25;;;;;;;7.38;1.30;;;;;;;;;;5079460;28;20740;-68
2024/01/19 12:53:54;;;;;;;10.25;1.30;;;;;;;;;;5088342;28;20670;-68
2024/01/19 12:56:25;;;;;;;8.13;0.90;;;;;;;;;;5086555;28;20043;-67
2024/01/19 12:58:54;;;;;;;6.82;0.85;;;;;;;;;;5072941;28;20163;-68
2024/01/19 13:01:22;;;;;;;11.65;0.93;;;;;;;;;;5074700;28;20059;-67
2024/01/19 13:03:49;;;;;;;10.07;1.05;;;;;;;;;;5081419;28;20079;-67
2024/01/19 13:06:16;;;;;;;11.60;0.90;;;;;;;;;;5073584;28;20040;-68
2024/01/19 13:08:44;;;;;;;7.63;1.25;;;;;;;;;;5079980;28;20135;-68
2024/01/19 13:11:11;;;;;;;10.73;2.65;;;;;;;;;;5082632;28;20047;-68
2024/01/19 13:13:38;;;;;;;9.05;1.15;;;;;;;;;;5080339;28;20048;-68
2024/01/19 13:16:13;;;;;;;6.43;1.08;;;;;;;;;;5074407;28;20491;-68
2024/01/19 13:18:42;;;;;;;5.00;0.93;;;;;;;;;;5073468;28;20045;-67
2024/01/19 13:21:13;;;;;;;4.57;1.10;;;;;;;;;;5081109;28;20479;-68
2024/01/19 13:23:42;;;;;;;7.30;1.05;;;;;;;;;;5085158;28;20484;-67
2024/01/19 13:26:16;;;;;;;10.63;1.60;;;;;;;;;;5081077;28;20052;-68
2024/01/19 13:28:43;;;;;;;5.00;1.23;;;;;;;;;;5074110;28;20051;-68
2024/01/19 13:31:14;;;;;;;8.85;1.10;;;;;;;;;;5075282;28;20048;-68
2024/01/19 13:33:42;;;;;;;4.03;0.88;;;;;;;;;;5075280;28;20048;-67
2024/01/19 13:36:10;;;;;;;13.07;1.92;;;;;;;;;;5071200;28;20060;-68
2024/01/19 13:38:37;;;;;;;13.98;2.47;;;;;;;;;;5074045;28;20765;-68
2024/01/19 13:41:07;;;;;;;13.20;1.38;;;;;;;;;;5061212;28;20079;-67
2024/01/19 13:43:34;;;;;;;7.63;1.40;;;;;;;;;;5085134;28;20089;-68
2024/01/19 13:46:02;;;;;;;7.90;1.52;;;;;;;;;;5069667;28;20056;-68
2024/01/19 13:48:31;;;;;;;9.25;1.08;;;;;;;;;;5071738;28;20068;-68
2024/01/19 13:50:59;;;;;;;8.45;1.17;;;;;;;;;;5079732;28;20055;-67
2024/01/19 13:53:26;;;;;;;6.78;0.98;;;;;;;;;;5072015;28;20488;-68
2024/01/19 13:55:53;;;;;;;16.15;1.40;;;;;;;;;;5073090;28;20051;-68
2024/01/19 13:58:20;;;;;;;12.55;1.20;;;;;;;;;;5078015;28;20048;-67
2024/01/19 14:00:48;;;;;;;11.43;1.65;;;;;;;;;;5078485;28;20094;-68
2024/01/19 14:03:17;;;;;;;8.60;1.30;;;;;;;;;;5070710;28;20135;-67
2024/01/19 14:05:48;;;;;;;13.73;1.25;;;;;;;;;;5055517;28;20045;-67
2024/01/19 14:08:16;;;;;;;13.60;1.60;;;;;;;;;;5059417;28;20136;-67
2024/01/19 14:10:46;;;;;;;15.93;2.25;;;;;;;;;;5085181;28;20044;-67
2024/01/19 14:13:14;;;;;;;7.13;1.20;;;;;;;;;;5071555;28;20087;-67
2024/01/19 14:15:43;;;;;;;11.48;1.25;;;;;;;;;;5053635;28;20056;-67
2024/01/19 14:18:11;;;;;;;6.22;1.20;;;;;;;;;;5075783;28;20062;-67
2024/01/19 14:20:38;;;;;;;7.22;1.30;;;;;;;;;;5074442;28;20044;-67
2024/01/19 14:23:07;;;;;;;7.20;1.05;;;;;;;;;;5073935;28;20040;-68
2024/01/19 14:25:34;;;;;;;11.98;1.02;;;;;;;;;;5078081;28;20044;-67
2024/01/19 14:28:02;;;;;;;8.60;1.10;;;;;;;;;;5078424;28;20048;-67
2024/01/19 14:30:29;;;;;;;13.18;1.17;;;;;;;;;;5067758;28;20052;-68
2024/01/19 14:32:57;;;;;;;9.68;1.48;;;;;;;;;;5075776;28;20388;-68
2024/01/19 14:35:24;;;;;;;7.88;1.10;;;;;;;;;;5074456;28;20076;-67
2024/01/19 14:37:52;;;;;;;8.45;1.45;;;;;;;;;;5074198;28;20083;-67
2024/01/19 14:40:20;;;;;;;9.48;1.45;;;;;;;;;;5073939;28;20048;-67
2024/01/19 14:42:48;;;;;;;8.10;1.42;;;;;;;;;;5076865;28;20040;-67
2024/01/19 14:45:15;;;;;;;5.65;1.08;;;;;;;;;;5071272;28;20103;-67
2024/01/19 14:47:43;;;;;;;7.78;1.42;;;;;;;;;;5078773;28;20800;-67